Fairdale, Pennsylvania
Current Conditions -  °F | °C
As of 11:53 AM on Friday 24 Oct 2014 (Local Time) from KMGW Reporting Station
Clear Clear  
Wind Chill: 53°   Ceiling: Unl
Heat Index: 53°   Visibility: 10mi
Dew Point: 41°   Wind: 5mph
Humidity: 64%   Direction: 260°W
Pressure: 30.11"   Gusts: NA
Location:  39.864°N, 80.0039°W
Report Text: KMGW 241553Z 26004KT 10SM CLR 12/05 A3011 RMK AO2 SLP197 T01170050
Loading
Personal Weather Stations






























Interactive Weather Map
Tropical Storm Tracking
New forecast layout! Learn more

10-Day Weather Forecast

Advertisements
Track Severe Weather on mobile